Time;durP1;ratioP1;P1;durP2;ratioP2;P2;SDS_P1;SDS_P2;PMS_P1;PMS_P2;Temp;Humidity;BMP_temperature;BMP_pressure;BME280_temperature;BME280_humidity;BME280_pressure;Samples;Min_cycle;Max_cycle;Signal;HPM_P1;HPM_P2
2021/06/28 00:00:15;;;;;;;;;;;;;;;22.46;66.33;101171.75;2195293;39;113882;-54
2021/06/28 00:01:47;;;;;;;;;;;;;;;22.45;65.91;101161.63;2197235;39;114060;-54
2021/06/28 00:03:19;;;;;;;;;;;;;;;22.46;66.11;101164.13;2188135;39;115358;-54
2021/06/28 00:04:51;;;;;;;;;;;;;;;22.44;66.14;101155.16;2195453;39;115076;-54
2021/06/28 00:06:23;;;;;;;;;;;;;;;22.46;66.40;101158.50;2196888;39;115012;-54
2021/06/28 00:07:55;;;;;;;;;;;;;;;22.46;66.00;101157.66;2191991;39;115211;-54
2021/06/28 00:09:26;;;;;;;;;;;;;;;22.46;66.48;101157.66;2194839;39;113921;-54
2021/06/28 00:10:58;;;;;;;;;;;;;;;22.46;66.06;101163.28;2190372;39;115100;-54
2021/06/28 00:12:30;;;;;;;;;;;;;;;22.46;66.18;101158.50;2182064;39;114859;-54
2021/06/28 00:14:02;;;;;;;;;;;;;;;22.46;66.10;101155.69;2191946;39;115249;-54
2021/06/28 00:15:38;;;;;;;;;;;;;;;22.45;66.11;101156.81;2190088;39;114930;-54
2021/06/28 00:17:10;;;;;;;;;;;;;;;22.46;65.97;101157.66;2186992;39;114504;-54
2021/06/28 00:18:42;;;;;;;;;;;;;;;22.45;66.07;101158.81;2186802;39;114863;-54
2021/06/28 00:20:15;;;;;;;;;;;;;;;22.46;65.89;101154.84;2188717;39;117154;-54
2021/06/28 00:21:46;;;;;;;;;;;;;;;22.47;65.95;101156.53;2190672;39;115240;-54
2021/06/28 00:23:18;;;;;;;;;;;;;;;22.46;65.95;101152.88;2200515;39;114055;-54
2021/06/28 00:24:50;;;;;;;;;;;;;;;22.46;65.84;101150.06;2195415;39;115480;-54
2021/06/28 00:26:22;;;;;;;;;;;;;;;22.47;65.95;101142.44;2196697;39;116084;-54
2021/06/28 00:27:53;;;;;;;;;;;;;;;22.45;65.92;101134.31;2193068;39;115950;-54
2021/06/28 00:29:31;;;;;;;;;;;;;;;22.46;65.66;101129.50;2193361;39;115692;-54
2021/06/28 00:31:03;;;;;;;;;;;;;;;22.46;65.80;101127.53;2190134;39;115645;-53
2021/06/28 00:32:35;;;;;;;;;;;;;;;22.47;65.91;101119.91;2185189;39;115828;-54
2021/06/28 00:34:07;;;;;;;;;;;;;;;22.44;65.54;101120.56;2187564;39;114878;-54
2021/06/28 00:35:39;;;;;;;;;;;;;;;22.46;65.46;101112.63;2195932;39;115492;-55
2021/06/28 00:37:12;;;;;;;;;;;;;;;22.48;65.77;101110.31;2185371;39;116229;-55
2021/06/28 00:38:43;;;;;;;;;;;;;;;22.48;65.58;101110.31;2193910;39;115429;-55
2021/06/28 00:40:16;;;;;;;;;;;;;;;22.45;65.50;101100.50;2198001;39;116392;-54
2021/06/28 00:41:48;;;;;;;;;;;;;;;22.46;65.66;101107.81;2198058;39;116223;-54
2021/06/28 00:43:20;;;;;;;;;;;;;;;22.46;65.67;101104.16;2190554;39;115666;-54
2021/06/28 00:44:53;;;;;;;;;;;;;;;22.50;65.70;101102.38;2191960;39;115602;-54
2021/06/28 00:46:25;;;;;;;;;;;;;;;22.49;65.47;101106.34;2201131;39;114914;-54
2021/06/28 00:47:58;;;;;;;;;;;;;;;22.49;65.57;101106.34;2191630;39;113965;-54
2021/06/28 00:49:30;;;;;;;;;;;;;;;22.49;65.56;101097.88;2195033;39;114055;-54
2021/06/28 00:51:02;;;;;;;;;;;;;;;22.48;65.73;101101.88;2194894;39;113849;-54
2021/06/28 00:52:33;;;;;;;;;;;;;;;22.48;65.71;101094.28;2197647;39;113896;-54
2021/06/28 00:54:05;;;;;;;;;;;;;;;22.49;65.83;101095.06;2198185;39;113651;-55
2021/06/28 00:55:39;;;;;;;;;;;;;;;22.48;65.73;101093.44;2197359;39;113619;-54
2021/06/28 00:57:11;;;;;;;;;;;;;;;22.47;65.80;101103.03;2189310;39;114409;-54
2021/06/28 00:58:44;;;;;;;;;;;;;;;22.46;65.64;101107.81;2194949;39;113780;-54
2021/06/28 01:00:16;;;;;;;;;;;;;;;22.49;65.65;101112.81;2195853;39;113921;-54
2021/06/28 01:01:48;;;;;;;;;;;;;;;22.47;65.65;101106.69;2196585;39;113971;-54
2021/06/28 01:03:19;;;;;;;;;;;;;;;22.48;65.70;101102.72;2197245;39;114059;-55
2021/06/28 01:04:51;;;;;;;;;;;;;;;22.47;65.66;101103.84;2189346;39;113787;-54
2021/06/28 01:06:23;;;;;;;;;;;;;;;22.48;65.75;101099.91;2191512;39;113675;-54
2021/06/28 01:07:54;;;;;;;;;;;;;;;22.47;65.65;101094.56;2200637;39;114115;-54
2021/06/28 01:09:26;;;;;;;;;;;;;;;22.45;65.57;101094.03;2196418;39;115401;-54
2021/06/28 01:10:58;;;;;;;;;;;;;;;22.46;65.57;101087.28;2188861;39;114308;-54
2021/06/28 01:12:30;;;;;;;;;;;;;;;22.46;65.82;101085.28;2189523;39;114839;-54
2021/06/28 01:14:02;;;;;;;;;;;;;;;22.49;66.06;101081.00;2185658;39;115261;-54
2021/06/28 01:15:34;;;;;;;;;;;;;;;22.49;65.99;101073.38;2189104;39;115349;-53
2021/06/28 01:17:07;;;;;;;;;;;;;;;22.50;66.20;101077.03;2192550;39;115145;-54
2021/06/28 01:18:39;;;;;;;;;;;;;;;22.47;66.12;101092.59;2191754;39;115279;-54
2021/06/28 01:20:12;;;;;;;;;;;;;;;22.49;66.03;101095.06;2189382;39;114591;-55
2021/06/28 01:21:44;;;;;;;;;;;;;;;22.49;66.30;101106.34;2193414;39;115017;-54
2021/06/28 01:23:19;;;;;;;;;;;;;;;22.50;66.00;101106.03;2195600;39;115264;-54
2021/06/28 01:24:57;;;;;;;;;;;;;;;22.50;66.06;101099.56;2188315;39;114184;-54
2021/06/28 01:26:30;;;;;;;;;;;;;;;22.50;65.91;101103.22;2193961;39;114209;-54
2021/06/28 01:28:01;;;;;;;;;;;;;;;22.50;66.10;101105.19;2195597;39;114801;-54
2021/06/28 01:29:33;;;;;;;;;;;;;;;22.52;65.89;101109.38;2198385;39;115335;-54
2021/06/28 01:31:07;;;;;;;;;;;;;;;22.50;65.72;101108.84;2196334;39;115531;-54
2021/06/28 01:32:40;;;;;;;;;;;;;;;22.48;65.75;101111.16;2190903;39;115787;-54
2021/06/28 01:34:12;;;;;;;;;;;;;;;22.47;65.59;101106.69;2195339;39;114497;-54
2021/06/28 01:35:45;;;;;;;;;;;;;;;22.49;65.88;101111.97;2195765;39;115374;-54
2021/06/28 01:37:24;;;;;;;;;;;;;;;22.49;65.70;101114.78;2188423;39;115829;-54
2021/06/28 01:38:56;;;;;;;;;;;;;;;22.50;65.65;101119.28;2193497;39;115827;-54
2021/06/28 01:40:28;;;;;;;;;;;;;;;22.50;65.61;101122.09;2195199;39;115502;-54
2021/06/28 01:42:00;;;;;;;;;;;;;;;22.50;65.76;101119.28;2195005;39;115519;-54
2021/06/28 01:43:32;;;;;;;;;;;;;;;22.49;65.55;101124.06;2197637;39;115476;-54
2021/06/28 01:45:06;;;;;;;;;;;;;;;22.49;65.68;101111.97;2192513;39;116021;-55
2021/06/28 01:46:38;;;;;;;;;;;;;;;22.47;65.67;101117.94;2196647;39;115505;-54
2021/06/28 01:48:10;;;;;;;;;;;;;;;22.46;65.52;101107.81;2197582;39;115507;-54
2021/06/28 01:49:41;;;;;;;;;;;;;;;22.48;65.48;101113.97;2196744;39;115461;-54
2021/06/28 01:51:13;;;;;;;;;;;;;;;22.48;65.42;101111.16;2199485;39;115861;-54
2021/06/28 01:52:46;;;;;;;;;;;;;;;22.50;65.85;101120.09;2197247;39;114134;-54
2021/06/28 01:54:17;;;;;;;;;;;;;;;22.49;65.67;101118.44;2197114;39;113800;-55
2021/06/28 01:55:49;;;;;;;;;;;;;;;22.50;65.52;101131.38;2196745;39;113765;-54
2021/06/28 01:57:21;;;;;;;;;;;;;;;22.50;65.53;101128.56;2197836;39;113643;-54
2021/06/28 01:58:53;;;;;;;;;;;;;;;22.50;65.42;101116.47;2196017;39;113900;-54
2021/06/28 02:00:27;;;;;;;;;;;;;;;22.49;65.37;101118.44;2196253;39;113755;-54
2021/06/28 02:01:59;;;;;;;;;;;;;;;22.50;65.27;101108.00;2190201;39;113806;-54
2021/06/28 02:03:34;;;;;;;;;;;;;;;22.47;65.38;101106.69;2180733;39;113865;-54
2021/06/28 02:05:07;;;;;;;;;;;;;;;22.50;65.26;101110.81;2183548;39;113913;-54
2021/06/28 02:06:39;;;;;;;;;;;;;;;22.48;65.35;101108.34;2189458;39;114001;-54
2021/06/28 02:08:12;;;;;;;;;;;;;;;22.49;65.24;101109.16;2196952;39;113805;-54
2021/06/28 02:09:44;;;;;;;;;;;;;;;22.48;65.20;101104.69;2188312;39;113970;-54
2021/06/28 02:11:16;;;;;;;;;;;;;;;22.48;65.31;101099.91;2195243;39;113769;-54
2021/06/28 02:12:48;;;;;;;;;;;;;;;22.48;65.00;101096.25;2197095;39;113843;-54
2021/06/28 02:14:20;;;;;;;;;;;;;;;22.48;65.44;101094.28;2198046;39;113499;-54
2021/06/28 02:15:53;;;;;;;;;;;;;;;22.46;65.30;101093.75;2192782;39;114942;-55
2021/06/28 02:17:25;;;;;;;;;;;;;;;22.48;64.96;101094.28;2194769;39;114842;-54
2021/06/28 02:18:57;;;;;;;;;;;;;;;22.49;65.25;101087.47;2197490;39;114985;-54
2021/06/28 02:20:29;;;;;;;;;;;;;;;22.48;64.88;101090.63;2198172;39;114142;-56
2021/06/28 02:22:01;;;;;;;;;;;;;;;22.49;64.87;101078.19;2191984;39;115878;-54
2021/06/28 02:23:35;;;;;;;;;;;;;;;22.49;65.11;101084.66;2191136;39;114696;-54
2021/06/28 02:25:08;;;;;;;;;;;;;;;22.52;65.15;101084.03;2192794;39;115834;-55
2021/06/28 02:26:40;;;;;;;;;;;;;;;22.49;64.94;101083.81;2187247;39;113985;-54
2021/06/28 02:28:12;;;;;;;;;;;;;;;22.49;64.99;101083.81;2189694;39;114847;-54
2021/06/28 02:29:44;;;;;;;;;;;;;;;22.49;64.99;101087.47;2198535;39;115270;-54
2021/06/28 02:31:19;;;;;;;;;;;;;;;22.50;64.67;101091.13;2201494;39;114926;-54
2021/06/28 02:32:51;;;;;;;;;;;;;;;22.49;64.75;101095.06;2190303;39;115282;-54
2021/06/28 02:34:23;;;;;;;;;;;;;;;22.49;64.56;101097.88;2188735;39;114082;-55
2021/06/28 02:35:55;;;;;;;;;;;;;;;22.48;64.79;101099.06;2196041;39;114862;-53
2021/06/28 02:37:27;;;;;;;;;;;;;;;22.49;64.88;101101.53;2199349;39;115664;-54
2021/06/28 02:38:59;;;;;;;;;;;;;;;22.47;64.84;101115.13;2192084;39;115476;-55
2021/06/28 02:40:31;;;;;;;;;;;;;;;22.47;64.74;101112.31;2188348;39;116127;-54
2021/06/28 02:42:03;;;;;;;;;;;;;;;22.48;64.65;101116.78;2194864;39;116002;-54
2021/06/28 02:43:35;;;;;;;;;;;;;;;22.48;64.64;101116.78;2196402;39;115643;-54
2021/06/28 02:45:08;;;;;;;;;;;;;;;22.46;64.82;101112.63;2192161;39;115592;-54
2021/06/28 02:46:40;;;;;;;;;;;;;;;22.49;64.83;101120.41;2194541;39;114543;-54
2021/06/28 02:48:12;;;;;;;;;;;;;;;22.48;64.70;101115.97;2196966;39;115534;-54
2021/06/28 02:49:44;;;;;;;;;;;;;;;22.49;64.67;101114.78;2196828;39;115616;-54
2021/06/28 02:51:16;;;;;;;;;;;;;;;22.48;64.78;101119.63;2196069;39;115571;-54
2021/06/28 02:52:48;;;;;;;;;;;;;;;22.48;64.56;101116.78;2197706;39;115577;-54
2021/06/28 02:54:20;;;;;;;;;;;;;;;22.49;64.72;101114.78;2198182;39;115457;-54
2021/06/28 02:55:52;;;;;;;;;;;;;;;22.49;64.72;101112.81;2197354;39;115495;-54
2021/06/28 02:57:24;;;;;;;;;;;;;;;22.50;64.88;101108.00;2193192;39;115945;-54
2021/06/28 02:58:56;;;;;;;;;;;;;;;22.48;64.76;101104.69;2199012;39;113936;-54
2021/06/28 03:00:28;;;;;;;;;;;;;;;22.46;64.62;101106.97;2197786;39;113714;-55
2021/06/28 03:02:00;;;;;;;;;;;;;;;22.45;64.65;101094.88;2198107;39;114289;-54
2021/06/28 03:03:32;;;;;;;;;;;;;;;22.46;64.88;101090.94;2198158;39;113771;-54
2021/06/28 03:05:05;;;;;;;;;;;;;;;22.46;64.87;101096.56;2197264;39;114325;-54
2021/06/28 03:06:37;;;;;;;;;;;;;;;22.46;64.91;101096.56;2196714;39;113856;-54
2021/06/28 03:08:09;;;;;;;;;;;;;;;22.47;64.78;101097.38;2193298;39;113758;-54
2021/06/28 03:09:41;;;;;;;;;;;;;;;22.46;64.79;101096.56;2195442;39;114985;-54
2021/06/28 03:11:14;;;;;;;;;;;;;;;22.45;64.88;101097.69;2195085;39;113828;-54
2021/06/28 03:12:46;;;;;;;;;;;;;;;22.46;65.02;101085.28;2187191;39;113671;-54
2021/06/28 03:14:17;;;;;;;;;;;;;;;22.44;65.02;101081.94;2194350;39;113661;-54
2021/06/28 03:15:49;;;;;;;;;;;;;;;22.45;64.88;101068.72;2193157;39;113954;-54
2021/06/28 03:17:21;;;;;;;;;;;;;;;22.44;64.86;101067.88;2194223;39;113822;-54
2021/06/28 03:18:53;;;;;;;;;;;;;;;22.45;64.78;101068.72;2198108;39;113892;-54
2021/06/28 03:20:25;;;;;;;;;;;;;;;22.44;64.70;101059.41;2189982;39;113844;-54
2021/06/28 03:21:57;;;;;;;;;;;;;;;22.43;64.90;101059.75;2197001;39;114877;-54
2021/06/28 03:23:29;;;;;;;;;;;;;;;22.42;64.60;101061.75;2185665;39;115210;-54
2021/06/28 03:25:01;;;;;;;;;;;;;;;22.43;65.06;101062.56;2194128;39;114898;-54
2021/06/28 03:26:33;;;;;;;;;;;;;;;22.43;64.96;101060.59;2198804;39;114796;-54
2021/06/28 03:28:05;;;;;;;;;;;;;;;22.44;65.04;101070.69;2195436;39;115206;-54
2021/06/28 03:29:37;;;;;;;;;;;;;;;22.44;64.97;101070.69;2190464;39;114781;-54
2021/06/28 03:31:09;;;;;;;;;;;;;;;22.43;65.03;101060.59;2193104;39;115017;-54
2021/06/28 03:32:41;;;;;;;;;;;;;;;22.43;65.25;101066.22;2192481;39;114927;-54
2021/06/28 03:34:13;;;;;;;;;;;;;;;22.43;65.01;101059.75;2193955;39;113976;-54
2021/06/28 03:35:45;;;;;;;;;;;;;;;22.42;64.84;101069.34;2197739;39;115271;-55
2021/06/28 03:37:17;;;;;;;;;;;;;;;22.43;64.95;101073.84;2198437;39;114841;-54
2021/06/28 03:38:49;;;;;;;;;;;;;;;22.41;65.03;101076.13;2189706;39;114918;-55
2021/06/28 03:40:20;;;;;;;;;;;;;;;22.40;65.05;101078.09;2195325;39;114915;-54
2021/06/28 03:41:52;;;;;;;;;;;;;;;22.41;64.94;101076.97;2194900;39;115568;-54
2021/06/28 03:43:24;;;;;;;;;;;;;;;22.41;65.02;101073.31;2198975;39;115526;-54
2021/06/28 03:44:56;;;;;;;;;;;;;;;22.41;64.89;101071.34;2200335;39;115871;-54
2021/06/28 03:46:28;;;;;;;;;;;;;;;22.39;65.10;101076.47;2193570;39;115993;-54
2021/06/28 03:48:00;;;;;;;;;;;;;;;22.40;65.05;101072.47;2195072;39;115809;-54
2021/06/28 03:49:32;;;;;;;;;;;;;;;22.41;65.05;101079.78;2198213;39;115687;-54
2021/06/28 03:51:04;;;;;;;;;;;;;;;22.41;65.24;101076.13;2192265;39;116108;-54
2021/06/28 03:52:36;;;;;;;;;;;;;;;22.42;65.06;101075.81;2198661;39;114611;-54
2021/06/28 03:54:08;;;;;;;;;;;;;;;22.42;65.25;101087.09;2191448;39;116002;-54
2021/06/28 03:55:39;;;;;;;;;;;;;;;22.41;65.17;101096.69;2191780;39;116081;-54
2021/06/28 03:57:12;;;;;;;;;;;;;;;22.40;65.33;101092.19;2195436;39;116242;-54
2021/06/28 03:58:44;;;;;;;;;;;;;;;22.43;65.29;101090.72;2197010;39;115700;-54
2021/06/28 04:00:18;;;;;;;;;;;;;;;22.40;65.17;101095.00;2187989;39;114685;-54
2021/06/28 04:01:49;;;;;;;;;;;;;;;22.41;65.27;101096.69;2190981;39;114583;-55
2021/06/28 04:03:26;;;;;;;;;;;;;;;22.41;65.12;101098.66;2198247;39;115506;-55
2021/06/28 04:04:57;;;;;;;;;;;;;;;22.41;65.26;101107.09;2197982;39;114331;-55
2021/06/28 04:06:30;;;;;;;;;;;;;;;22.41;65.27;101095.84;2198080;39;113946;-54
2021/06/28 04:08:02;;;;;;;;;;;;;;;22.39;65.10;101096.19;2191008;39;114484;-54
2021/06/28 04:09:34;;;;;;;;;;;;;;;22.40;65.28;101094.16;2195793;39;114104;-54
2021/06/28 04:11:07;;;;;;;;;;;;;;;22.39;65.19;101098.16;2196582;39;114107;-55
2021/06/28 04:12:38;;;;;;;;;;;;;;;22.39;65.06;101090.53;2190776;39;113700;-54
2021/06/28 04:14:12;;;;;;;;;;;;;;;22.39;65.18;101099.00;2191671;39;114103;-54
2021/06/28 04:15:44;;;;;;;;;;;;;;;22.40;65.14;101096.97;2196758;39;113741;-54
2021/06/28 04:17:16;;;;;;;;;;;;;;;22.39;65.35;101096.19;2191230;39;113680;-54
2021/06/28 04:18:48;;;;;;;;;;;;;;;22.39;65.11;101096.19;2196400;39;114102;-54
2021/06/28 04:20:22;;;;;;;;;;;;;;;22.39;65.26;101098.16;2198091;39;113671;-54
2021/06/28 04:21:54;;;;;;;;;;;;;;;22.38;65.23;101097.31;2199657;39;114008;-54
2021/06/28 04:23:25;;;;;;;;;;;;;;;22.40;65.11;101094.16;2186912;39;114033;-54
2021/06/28 04:24:57;;;;;;;;;;;;;;;22.38;65.14;101097.31;2190432;39;113791;-54
2021/06/28 04:26:29;;;;;;;;;;;;;;;22.39;65.18;101101.81;2197628;39;114888;-54
2021/06/28 04:28:02;;;;;;;;;;;;;;;22.37;65.09;101098.47;2194393;39;114756;-54
2021/06/28 04:29:34;;;;;;;;;;;;;;;22.39;65.14;101092.53;2196783;39;114616;-54
2021/06/28 04:31:06;;;;;;;;;;;;;;;22.38;65.10;101091.69;2198484;39;115446;-54
2021/06/28 04:32:38;;;;;;;;;;;;;;;22.40;65.19;101100.63;2198045;39;114959;-54
2021/06/28 04:34:10;;;;;;;;;;;;;;;22.39;65.25;101095.34;2198805;39;115022;-54
2021/06/28 04:35:42;;;;;;;;;;;;;;;22.40;65.36;101100.63;2197101;39;115020;-54
2021/06/28 04:37:14;;;;;;;;;;;;;;;22.42;65.21;101112.44;2188439;39;114743;-54
2021/06/28 04:38:46;;;;;;;;;;;;;;;22.41;65.20;101116.38;2192002;39;115170;-55
2021/06/28 04:40:18;;;;;;;;;;;;;;;22.40;65.39;101113.88;2187369;39;114676;-54
2021/06/28 04:41:50;;;;;;;;;;;;;;;22.40;65.28;101120.34;2184639;39;113869;-54
2021/06/28 04:43:22;;;;;;;;;;;;;;;22.40;65.48;101116.69;2195730;39;114836;-54
2021/06/28 04:44:54;;;;;;;;;;;;;;;22.37;65.38;101128.59;2200828;39;114910;-54
2021/06/28 04:46:25;;;;;;;;;;;;;;;22.36;65.40;101124.94;2198223;39;114905;-54
2021/06/28 04:47:57;;;;;;;;;;;;;;;22.38;65.57;101122.66;2192967;39;116438;-54
2021/06/28 04:49:29;;;;;;;;;;;;;;;22.39;65.42;101115.88;2196290;39;115510;-54
2021/06/28 04:51:01;;;;;;;;;;;;;;;22.38;65.59;101114.22;2193970;39;115381;-54
2021/06/28 04:52:34;;;;;;;;;;;;;;;22.38;65.72;101110.56;2192420;39;115424;-54
2021/06/28 04:54:06;;;;;;;;;;;;;;;22.38;65.39;101114.22;2193164;39;115466;-54
2021/06/28 04:55:38;;;;;;;;;;;;;;;22.37;65.55;101123.81;2193657;39;116532;-54
2021/06/28 04:57:13;;;;;;;;;;;;;;;22.36;65.72;101118.47;2197909;39;115987;-54
2021/06/28 04:58:45;;;;;;;;;;;;;;;22.35;65.45;101112.00;2198598;39;115716;-54
2021/06/28 05:00:21;;;;;;;;;;;;;;;22.37;65.49;101106.91;2193547;39;115858;-54
2021/06/28 05:01:52;;;;;;;;;;;;;;;22.38;65.58;101107.75;2190314;39;114911;-54
2021/06/28 05:03:24;;;;;;;;;;;;;;;22.37;65.61;101117.34;2197821;39;115523;-55
2021/06/28 05:04:56;;;;;;;;;;;;;;;22.36;65.56;101118.47;2194479;39;116321;-54
2021/06/28 05:06:28;;;;;;;;;;;;;;;22.35;65.71;101117.63;2199482;39;115642;-54
2021/06/28 05:08:00;;;;;;;;;;;;;;;22.37;65.60;101117.34;2201147;39;115583;-54
2021/06/28 05:09:32;;;;;;;;;;;;;;;22.36;65.74;101119.31;2193346;39;113845;-54
2021/06/28 05:11:04;;;;;;;;;;;;;;;22.35;65.66;101123.28;2193029;39;113771;-60
2021/06/28 05:12:35;;;;;;;;;;;;;;;22.38;65.76;101127.44;2195602;39;113803;-54
2021/06/28 05:14:07;;;;;;;;;;;;;;;22.37;65.68;101126.63;2194542;39;113920;-54
2021/06/28 05:15:39;;;;;;;;;;;;;;;22.35;65.69;101123.28;2194951;39;113621;-54
2021/06/28 05:17:12;;;;;;;;;;;;;;;22.34;65.75;101120.78;2191496;39;113596;-54
2021/06/28 05:18:44;;;;;;;;;;;;;;;22.36;65.84;101118.47;2196245;39;113817;-54
2021/06/28 05:20:16;;;;;;;;;;;;;;;22.36;65.83;101116.50;2193436;39;113675;-54
2021/06/28 05:21:48;;;;;;;;;;;;;;;22.37;65.92;101118.16;2193830;39;113675;-54
2021/06/28 05:23:20;;;;;;;;;;;;;;;22.38;65.91;101110.56;2196496;39;113820;-54
2021/06/28 05:24:52;;;;;;;;;;;;;;;22.37;65.79;101111.69;2187195;39;114466;-54
2021/06/28 05:26:24;;;;;;;;;;;;;;;22.39;65.90;101115.88;2190752;39;113755;-55
2021/06/28 05:27:58;;;;;;;;;;;;;;;22.37;66.23;101115.34;2196308;39;113762;-54
2021/06/28 05:29:30;;;;;;;;;;;;;;;22.38;65.96;101111.41;2190616;39;113888;-54
2021/06/28 05:31:03;;;;;;;;;;;;;;;22.39;66.13;101107.44;2198719;39;114800;-53
2021/06/28 05:32:35;;;;;;;;;;;;;;;22.38;66.07;101108.56;2198273;39;114044;-54
2021/06/28 05:34:07;;;;;;;;;;;;;;;22.38;65.82;101113.38;2197505;39;115501;-54
2021/06/28 05:35:39;;;;;;;;;;;;;;;22.37;66.06;101109.72;2196345;39;114743;-54
2021/06/28 05:37:12;;;;;;;;;;;;;;;22.39;66.00;101115.03;2195561;39;115185;-54
2021/06/28 05:38:44;;;;;;;;;;;;;;;22.38;65.99;101116.19;2198431;39;115288;-54
2021/06/28 05:40:16;;;;;;;;;;;;;;;22.39;65.84;101123.50;2185749;39;114849;-54
2021/06/28 05:41:47;;;;;;;;;;;;;;;22.36;65.89;101124.09;2185454;39;114904;-54
2021/06/28 05:43:19;;;;;;;;;;;;;;;22.36;65.93;101122.13;2192794;39;114962;-54
2021/06/28 05:44:51;;;;;;;;;;;;;;;22.39;65.91;101124.34;2190972;39;113844;-54
2021/06/28 05:46:23;;;;;;;;;;;;;;;22.38;65.87;101122.66;2195151;39;114839;-54
2021/06/28 05:47:55;;;;;;;;;;;;;;;22.39;66.08;101124.34;2190483;39;114702;-54
2021/06/28 05:49:27;;;;;;;;;;;;;;;22.38;65.96;101122.66;2189031;39;114315;-54
2021/06/28 05:50:59;;;;;;;;;;;;;;;22.36;65.91;101124.94;2195885;39;114841;-54
2021/06/28 05:52:30;;;;;;;;;;;;;;;22.38;65.97;101128.28;2197284;39;115009;-54
2021/06/28 05:54:02;;;;;;;;;;;;;;;22.39;65.91;101129.13;2196599;39;115478;-54
2021/06/28 05:55:34;;;;;;;;;;;;;;;22.38;65.91;101127.44;2198956;39;115812;-54
2021/06/28 05:57:06;;;;;;;;;;;;;;;22.39;65.98;101129.97;2198504;39;115960;-54
2021/06/28 05:58:40;;;;;;;;;;;;;;;22.37;65.74;101129.44;2199764;39;115799;-54
2021/06/28 06:00:12;;;;;;;;;;;;;;;22.36;65.83;101119.31;2198787;39;116370;-54
2021/06/28 06:01:44;;;;;;;;;;;;;;;22.36;66.01;101126.91;2191633;39;114674;-54
2021/06/28 06:03:16;;;;;;;;;;;;;;;22.40;65.80;101119.50;2196368;39;115802;-54
2021/06/28 06:04:48;;;;;;;;;;;;;;;22.37;65.92;101125.78;2198512;39;115452;-54
2021/06/28 06:06:21;;;;;;;;;;;;;;;22.36;66.09;101124.09;2191681;39;116084;-54
2021/06/28 06:07:53;;;;;;;;;;;;;;;22.37;65.90;101126.63;2190733;39;115700;-54
2021/06/28 06:09:25;;;;;;;;;;;;;;;22.39;65.90;101126.31;2187047;39;115669;-54
2021/06/28 06:10:59;;;;;;;;;;;;;;;22.40;65.97;101133.59;2183048;39;114783;-54
2021/06/28 06:12:30;;;;;;;;;;;;;;;22.38;65.72;101141.53;2180705;39;115576;-53
2021/06/28 06:14:03;;;;;;;;;;;;;;;22.37;65.91;101143.50;2192192;39;115595;-55
2021/06/28 06:15:34;;;;;;;;;;;;;;;22.36;65.92;101141.84;2198875;39;114440;-54
2021/06/28 06:17:07;;;;;;;;;;;;;;;22.37;65.75;101134.22;2198105;39;114260;-54
2021/06/28 06:18:39;;;;;;;;;;;;;;;22.36;66.04;101146.63;2198340;39;113765;-54
2021/06/28 06:20:11;;;;;;;;;;;;;;;22.36;65.86;101143.81;2198871;39;113996;-54
2021/06/28 06:21:43;;;;;;;;;;;;;;;22.36;65.82;101150.28;2187945;39;113917;-54
2021/06/28 06:23:15;;;;;;;;;;;;;;;22.34;65.91;101144.16;2188142;39;113974;-54
2021/06/28 06:24:47;;;;;;;;;;;;;;;22.38;65.86;101138.72;2189204;39;113799;-54
2021/06/28 06:26:19;;;;;;;;;;;;;;;22.36;66.01;101143.81;2180246;39;114016;-54
2021/06/28 06:27:51;;;;;;;;;;;;;;;22.36;65.81;101143.81;2194870;39;114100;-54
2021/06/28 06:29:24;;;;;;;;;;;;;;;22.37;65.87;101149.13;2194401;39;114049;-54
2021/06/28 06:30:56;;;;;;;;;;;;;;;22.36;65.84;101146.63;2187414;39;113979;-55
2021/06/28 06:32:28;;;;;;;;;;;;;;;22.35;65.94;101148.59;2190239;39;113803;-55
2021/06/28 06:33:59;;;;;;;;;;;;;;;22.35;65.69;101148.59;2194163;39;113794;-55
2021/06/28 06:35:34;;;;;;;;;;;;;;;22.35;65.82;101145.78;2204325;39;113606;-55
2021/06/28 06:37:06;;;;;;;;;;;;;;;22.37;65.76;101151.13;2199126;39;114852;-55
2021/06/28 06:38:37;;;;;;;;;;;;;;;22.34;65.85;101143.31;2187942;39;114926;-54
2021/06/28 06:40:09;;;;;;;;;;;;;;;22.32;65.81;101139.97;2194178;39;114844;-54
2021/06/28 06:41:41;;;;;;;;;;;;;;;22.34;65.87;101149.78;2194702;39;115382;-54
2021/06/28 06:43:13;;;;;;;;;;;;;;;22.36;66.08;101141.00;2194750;39;114242;-54
2021/06/28 06:44:45;;;;;;;;;;;;;;;22.34;65.87;101146.97;2185919;39;115253;-55
2021/06/28 06:46:17;;;;;;;;;;;;;;;22.36;65.82;101153.09;2187430;39;114147;-54
2021/06/28 06:47:49;;;;;;;;;;;;;;;22.37;65.77;101153.94;2188386;39;115009;-54
2021/06/28 06:49:21;;;;;;;;;;;;;;;22.39;65.84;101155.31;2196259;39;114071;-54
2021/06/28 06:50:55;;;;;;;;;;;;;;;22.36;65.71;101153.09;2190008;39;114256;-54
2021/06/28 06:52:27;;;;;;;;;;;;;;;22.36;66.11;101155.91;2197615;39;114748;-54
2021/06/28 06:53:58;;;;;;;;;;;;;;;22.33;66.03;101156.56;2191898;39;114881;-55
2021/06/28 06:55:30;;;;;;;;;;;;;;;22.26;66.44;101156.13;2196317;39;114081;-54
2021/06/28 06:57:02;;;;;;;;;;;;;;;22.21;66.39;101147.81;2201165;39;114703;-54
2021/06/28 06:58:34;;;;;;;;;;;;;;;22.24;66.49;101147.19;2197322;39;115778;-54
2021/06/28 07:00:08;;;;;;;;;;;;;;;22.25;66.43;101156.47;2198399;39;115395;-54
2021/06/28 07:01:41;;;;;;;;;;;;;;;22.25;66.36;101156.47;2198400;39;115660;-54
2021/06/28 07:03:13;;;;;;;;;;;;;;;22.24;66.49;101161.25;2198435;39;115884;-55
2021/06/28 07:04:45;;;;;;;;;;;;;;;22.24;66.54;101166.88;2199491;39;116151;-54
2021/06/28 07:06:16;;;;;;;;;;;;;;;22.23;66.41;101162.41;2191214;39;116079;-54
2021/06/28 07:07:48;;;;;;;;;;;;;;;22.22;66.26;101159.88;2198441;39;115420;-54
2021/06/28 07:09:20;;;;;;;;;;;;;;;22.18;66.17;101157.72;2187428;39;116144;-54
2021/06/28 07:10:52;;;;;;;;;;;;;;;22.23;66.00;101164.38;2198104;39;115572;-54
2021/06/28 07:12:24;;;;;;;;;;;;;;;22.23;66.05;101161.56;2191739;39;115462;-54
2021/06/28 07:13:59;;;;;;;;;;;;;;;22.24;66.43;101169.69;2196212;39;115619;-54
2021/06/28 07:15:31;;;;;;;;;;;;;;;22.17;66.11;101164.47;2197063;39;115962;-54
2021/06/28 07:17:03;;;;;;;;;;;;;;;22.15;66.34;101163.97;2196644;39;116822;-55
2021/06/28 07:18:36;;;;;;;;;;;;;;;22.15;66.26;101166.78;2195025;39;114809;-55
2021/06/28 07:20:13;;;;;;;;;;;;;;;22.16;66.10;101178.91;2194321;39;115544;-54
2021/06/28 07:21:48;;;;;;;;;;;;;;;22.12;66.42;101181.47;2190679;39;113694;-54
2021/06/28 07:23:21;;;;;;;;;;;;;;;22.12;66.30;101180.66;2194811;39;113752;-54
2021/06/28 07:24:53;;;;;;;;;;;;;;;22.09;66.72;101179.31;2198154;39;115771;-54
2021/06/28 07:26:25;;;;;;;;;;;;;;;22.15;66.41;101177.22;2203952;39;113818;-54
2021/06/28 07:27:58;;;;;;;;;;;;;;;22.11;66.06;101185.47;2191755;39;114162;-54
2021/06/28 07:29:30;;;;;;;;;;;;;;;22.06;66.37;101188.38;2189312;39;113977;-54
2021/06/28 07:31:02;;;;;;;;;;;;;;;22.02;66.47;101184.53;2196555;39;113732;-54
2021/06/28 07:32:34;;;;;;;;;;;;;;;22.00;66.30;101188.78;2191801;39;113780;-55
2021/06/28 07:34:06;;;;;;;;;;;;;;;21.99;66.36;101192.72;2188913;39;114104;-54
2021/06/28 07:35:38;;;;;;;;;;;;;;;21.96;66.75;101194.22;2197947;39;113727;-54
2021/06/28 07:37:11;;;;;;;;;;;;;;;21.92;66.72;101192.28;2201301;39;113636;-53
2021/06/28 07:38:43;;;;;;;;;;;;;;;21.89;67.01;101199.41;2190100;39;114170;-54
2021/06/28 07:40:17;;;;;;;;;;;;;;;21.86;66.99;101200.00;2192871;39;114113;-54
2021/06/28 07:41:50;;;;;;;;;;;;;;;21.88;66.82;101200.53;2192834;39;113957;-54
2021/06/28 07:43:23;;;;;;;;;;;;;;;21.86;66.94;101201.97;2195325;39;114972;-53
2021/06/28 07:44:55;;;;;;;;;;;;;;;21.87;66.83;101207.28;2197554;39;115217;-54
2021/06/28 07:46:27;;;;;;;;;;;;;;;21.85;66.66;101203.13;2192977;39;114886;-54
2021/06/28 07:48:00;;;;;;;;;;;;;;;21.85;67.19;101203.94;2193288;39;114957;-53